createdAt,value
2023-08-17T00:01:56.055Z,21.80
2023-08-17T00:04:23.422Z,21.80
2023-08-17T00:06:54.924Z,21.80
2023-08-17T00:09:22.069Z,21.90
2023-08-17T00:11:49.483Z,21.90
2023-08-17T00:14:16.694Z,22.00
2023-08-17T00:16:43.810Z,22.00
2023-08-17T00:19:11.058Z,22.10
2023-08-17T00:21:39.001Z,22.10
2023-08-17T00:24:06.207Z,22.20
2023-08-17T00:26:33.340Z,22.20
2023-08-17T00:29:00.554Z,22.30
2023-08-17T00:31:27.681Z,22.30
2023-08-17T00:33:54.840Z,22.30
2023-08-17T00:36:22.079Z,22.40
2023-08-17T00:38:49.191Z,22.40
2023-08-17T00:41:16.438Z,22.40
2023-08-17T00:43:43.637Z,22.50
2023-08-17T00:46:12.202Z,22.40
2023-08-17T00:48:39.658Z,22.50
2023-08-17T00:51:32.746Z,22.50
2023-08-17T00:54:01.859Z,22.50
2023-08-17T00:56:29.339Z,22.40
2023-08-17T00:58:58.382Z,22.40
2023-08-17T01:01:35.089Z,22.40
2023-08-17T01:04:02.221Z,22.30
2023-08-17T01:06:29.355Z,22.20
2023-08-17T01:08:56.573Z,22.20
2023-08-17T01:11:33.851Z,22.10
2023-08-17T01:14:11.201Z,22.10
2023-08-17T01:16:49.145Z,22.00
2023-08-17T01:19:27.091Z,22.00
2023-08-17T01:22:15.871Z,21.90
2023-08-17T01:24:43.008Z,21.90
2023-08-17T01:27:10.538Z,21.90
2023-08-17T01:29:42.025Z,21.90
2023-08-17T01:32:25.677Z,21.90
2023-08-17T01:35:16.640Z,21.90
2023-08-17T01:37:45.758Z,22.00
2023-08-17T01:40:14.828Z,22.00
2023-08-17T01:42:44.248Z,22.00
2023-08-17T01:45:12.337Z,22.00
2023-08-17T01:47:39.555Z,22.00
2023-08-17T01:50:07.108Z,22.00
2023-08-17T01:52:40.286Z,22.00
2023-08-17T01:55:07.788Z,21.90
2023-08-17T01:57:34.968Z,22.00
2023-08-17T02:00:18.952Z,22.00
2023-08-17T02:02:46.600Z,21.90
2023-08-17T02:05:18.870Z,21.90
2023-08-17T02:07:46.102Z,21.90
2023-08-17T02:10:13.256Z,22.00
2023-08-17T02:12:46.786Z,21.90
2023-08-17T02:15:13.984Z,22.00
2023-08-17T02:17:41.183Z,22.00
2023-08-17T02:20:10.069Z,22.00
2023-08-17T02:22:47.423Z,22.00
2023-08-17T02:25:14.710Z,22.10
2023-08-17T02:27:41.798Z,22.10
2023-08-17T02:30:09.295Z,22.10
2023-08-17T02:32:36.693Z,22.10
2023-08-17T02:35:05.870Z,22.20
2023-08-17T02:37:39.495Z,22.20
2023-08-17T02:40:12.300Z,22.20
2023-08-17T02:43:18.023Z,22.20
2023-08-17T02:46:00.839Z,22.20
2023-08-17T02:48:29.041Z,22.20
2023-08-17T02:51:25.117Z,22.20
2023-08-17T02:54:12.030Z,22.30
2023-08-17T02:56:42.503Z,22.20
2023-08-17T02:59:09.608Z,22.20
2023-08-17T03:01:37.104Z,22.20
2023-08-17T03:04:05.025Z,22.20
2023-08-17T03:06:33.256Z,22.20
2023-08-17T03:09:00.400Z,22.30
2023-08-17T03:11:35.535Z,22.30
2023-08-17T03:14:02.864Z,22.30
2023-08-17T03:16:35.759Z,22.40
2023-08-17T03:19:03.042Z,22.40
2023-08-17T03:21:36.889Z,22.40
2023-08-17T03:24:04.504Z,22.40
2023-08-17T03:26:40.078Z,22.40
2023-08-17T03:29:07.228Z,22.40
2023-08-17T03:31:34.413Z,22.50
2023-08-17T03:34:02.287Z,22.50
2023-08-17T03:36:29.427Z,22.50
2023-08-17T03:38:56.649Z,22.50
2023-08-17T03:41:26.874Z,22.50
2023-08-17T03:43:54.005Z,22.50
2023-08-17T03:46:21.375Z,22.50
2023-08-17T03:48:48.704Z,22.50
2023-08-17T03:51:15.844Z,22.50
2023-08-17T03:53:43.481Z,22.50
2023-08-17T03:56:10.656Z,22.50
2023-08-17T03:59:04.118Z,22.50
2023-08-17T04:01:31.546Z,22.50
2023-08-17T04:03:58.825Z,22.50
2023-08-17T04:06:25.956Z,22.50
2023-08-17T04:08:53.081Z,22.50
2023-08-17T04:11:20.262Z,22.50
2023-08-17T04:13:47.432Z,22.60
2023-08-17T04:16:14.598Z,22.60
2023-08-17T04:18:42.901Z,22.60
2023-08-17T04:21:15.758Z,22.60
2023-08-17T04:23:42.992Z,22.70
2023-08-17T04:26:10.163Z,22.70
2023-08-17T04:28:44.426Z,22.80
2023-08-17T04:31:11.837Z,22.90
2023-08-17T04:33:39.138Z,22.90
2023-08-17T04:36:08.940Z,23.00
2023-08-17T04:38:36.129Z,23.10
2023-08-17T04:41:03.413Z,23.20
2023-08-17T04:43:30.644Z,23.20
2023-08-17T04:46:08.512Z,23.30
2023-08-17T04:48:35.770Z,23.40
2023-08-17T04:51:03.764Z,23.40
2023-08-17T04:53:30.965Z,23.50
2023-08-17T04:56:08.935Z,23.50
2023-08-17T04:58:36.118Z,23.60
2023-08-17T05:01:03.489Z,23.60
2023-08-17T05:03:33.568Z,23.60
2023-08-17T05:06:01.633Z,23.70
2023-08-17T05:08:28.975Z,23.80
2023-08-17T05:10:59.113Z,23.90
2023-08-17T05:13:26.301Z,24.00
2023-08-17T05:15:53.594Z,24.10
2023-08-17T05:18:20.816Z,24.30
2023-08-17T05:20:47.984Z,24.40
2023-08-17T05:23:30.195Z,24.40
2023-08-17T05:25:57.432Z,24.50
2023-08-17T05:28:24.688Z,24.50
2023-08-17T05:30:52.106Z,24.60
2023-08-17T05:33:19.246Z,24.60
2023-08-17T05:35:50.403Z,24.60
2023-08-17T05:38:17.532Z,24.60
2023-08-17T05:40:44.789Z,24.60
2023-08-17T05:43:12.246Z,24.70
2023-08-17T05:45:39.377Z,24.80
2023-08-17T05:48:08.155Z,24.90
2023-08-17T05:50:35.908Z,25.00
2023-08-17T05:53:03.127Z,25.20
2023-08-17T05:55:30.658Z,25.40
2023-08-17T05:57:57.807Z,25.60
2023-08-17T06:00:25.233Z,25.70
2023-08-17T06:02:52.716Z,25.80
2023-08-17T06:05:20.215Z,25.70
2023-08-17T06:07:47.383Z,25.60
2023-08-17T06:10:14.653Z,25.50
2023-08-17T06:12:43.031Z,25.30
2023-08-17T06:15:10.507Z,25.20
2023-08-17T06:17:40.421Z,25.10
2023-08-17T06:20:11.080Z,25.10
2023-08-17T06:22:38.671Z,25.20
2023-08-17T06:25:07.171Z,25.10
2023-08-17T06:27:34.838Z,25.20
2023-08-17T06:30:04.186Z,25.20
2023-08-17T06:32:32.125Z,25.20
2023-08-17T06:34:59.510Z,25.30
2023-08-17T06:37:27.111Z,25.30
2023-08-17T11:23:46.211Z,28.60
2023-08-17T11:26:17.571Z,30.70
2023-08-17T11:28:46.074Z,30.90
2023-08-17T11:31:17.101Z,31.00
2023-08-17T11:33:48.814Z,31.10
2023-08-17T11:36:16.363Z,31.20
2023-08-17T11:38:45.320Z,31.50
2023-08-17T11:43:45.487Z,31.80
2023-08-17T11:46:13.914Z,32.00
2023-08-17T11:48:41.478Z,32.10
2023-08-17T11:51:08.731Z,32.30
2023-08-17T11:53:40.958Z,32.40
2023-08-17T11:56:10.459Z,32.60
2023-08-17T11:58:47.296Z,32.60
2023-08-17T12:01:17.632Z,32.80
2023-08-17T12:03:45.796Z,32.90
2023-08-17T12:06:16.567Z,32.60
2023-08-17T12:08:48.063Z,32.40
2023-08-17T12:11:20.868Z,32.00
2023-08-17T12:13:54.910Z,31.70
2023-08-17T12:16:24.093Z,31.70
2023-08-17T12:18:53.869Z,31.70
2023-08-17T12:21:23.381Z,31.80
2023-08-17T12:23:51.068Z,31.90
2023-08-17T12:26:23.035Z,32.10
2023-08-17T12:28:51.383Z,32.20
2023-08-17T12:31:24.912Z,32.40
2023-08-17T16:26:41.578Z,26.60
2023-08-17T16:29:08.797Z,28.00
2023-08-17T16:31:36.974Z,28.20
2023-08-17T16:34:04.433Z,28.40
2023-08-17T16:36:36.314Z,28.50
2023-08-17T16:39:04.112Z,28.60
2023-08-17T16:41:31.283Z,28.70
2023-08-17T16:43:58.763Z,28.70
2023-08-17T16:46:26.200Z,28.70
2023-08-17T16:48:53.301Z,28.70
2023-08-17T16:51:20.362Z,28.70
2023-08-17T16:53:50.952Z,28.70
2023-08-17T16:56:18.332Z,28.60
2023-08-17T16:58:45.397Z,28.70
2023-08-17T17:01:15.184Z,28.60
2023-08-17T17:03:43.866Z,28.60
2023-08-17T17:06:12.502Z,28.50
2023-08-17T17:08:39.573Z,28.50
2023-08-17T17:11:06.744Z,28.30
2023-08-17T17:13:35.705Z,28.10
2023-08-17T17:16:03.266Z,27.90
2023-08-17T17:18:30.424Z,27.90
2023-08-17T17:20:57.530Z,27.80
2023-08-17T17:23:24.535Z,27.60
2023-08-17T17:25:51.635Z,27.50
2023-08-17T17:28:18.790Z,27.40
2023-08-17T17:30:45.893Z,27.30
2023-08-17T17:33:13.033Z,27.20
2023-08-17T17:35:40.098Z,27.10
2023-08-17T17:38:08.127Z,27.00
2023-08-17T17:40:35.252Z,26.90
2023-08-17T17:43:02.326Z,26.90
2023-08-17T17:45:29.496Z,26.80
2023-08-17T17:47:56.814Z,26.80
2023-08-17T17:50:24.124Z,26.70
2023-08-17T17:52:51.256Z,26.70
2023-08-17T17:55:18.456Z,26.60
2023-08-17T17:57:45.582Z,26.60
2023-08-17T18:00:14.613Z,26.50
2023-08-17T18:02:41.770Z,26.50
2023-08-17T18:05:14.270Z,26.50
2023-08-17T18:07:41.344Z,26.50
2023-08-17T18:10:09.295Z,26.40
2023-08-17T18:12:36.574Z,26.50
2023-08-17T18:15:04.249Z,26.40
2023-08-17T18:17:32.538Z,26.40
2023-08-17T18:19:59.905Z,26.30
2023-08-17T18:22:26.991Z,26.30
2023-08-17T18:24:54.378Z,26.20
2023-08-17T18:27:22.699Z,26.10
2023-08-17T18:29:49.864Z,26.10
2023-08-17T18:32:16.962Z,26.00
2023-08-17T18:34:44.009Z,26.00
2023-08-17T18:37:11.080Z,26.00
2023-08-17T18:39:38.197Z,25.90
2023-08-17T18:42:05.619Z,25.90
2023-08-17T18:44:32.663Z,25.90
2023-08-17T18:46:59.729Z,25.80
2023-08-17T18:49:26.837Z,25.80
2023-08-17T18:51:54.008Z,25.80
2023-08-17T18:54:21.027Z,25.70
2023-08-17T18:56:48.308Z,25.80
2023-08-17T18:59:15.447Z,25.70
2023-08-17T19:01:42.574Z,25.70
2023-08-17T19:04:09.710Z,25.60
2023-08-17T19:06:36.795Z,25.60
2023-08-17T19:09:04.633Z,25.60
2023-08-17T19:11:31.721Z,25.50
2023-08-17T19:13:58.835Z,25.50
2023-08-17T19:16:26.118Z,25.50
2023-08-17T19:18:53.263Z,25.50
2023-08-17T19:21:20.372Z,25.50
2023-08-17T19:23:47.503Z,25.50
2023-08-17T19:26:14.910Z,25.50
2023-08-17T19:28:41.996Z,25.50
2023-08-17T19:31:09.370Z,25.50
2023-08-17T19:33:36.394Z,25.50
2023-08-17T19:36:03.750Z,25.50
2023-08-17T19:38:30.852Z,25.50
2023-08-17T19:40:57.901Z,25.50
2023-08-17T19:43:25.020Z,25.50
2023-08-17T19:45:52.120Z,25.40
2023-08-17T19:48:19.227Z,25.40
2023-08-17T19:50:46.263Z,25.40
2023-08-17T19:53:13.336Z,25.40
2023-08-17T19:55:40.446Z,25.30
2023-08-17T19:58:07.566Z,25.30
2023-08-17T20:00:35.244Z,25.20
2023-08-17T20:03:02.578Z,25.30
2023-08-17T20:05:29.718Z,25.30
2023-08-17T20:07:56.914Z,25.30
2023-08-17T20:10:24.072Z,25.30
2023-08-17T20:12:51.201Z,25.30
2023-08-17T20:15:18.401Z,25.30
2023-08-17T20:17:45.524Z,25.20
2023-08-17T20:20:16.746Z,25.20
2023-08-17T20:22:45.395Z,25.20
2023-08-17T20:25:13.937Z,25.20
2023-08-17T20:27:45.999Z,25.30
2023-08-17T20:30:13.706Z,25.20
2023-08-17T20:32:40.839Z,25.20
2023-08-17T20:35:08.628Z,25.20
2023-08-17T20:37:35.900Z,25.10
2023-08-17T20:40:03.018Z,25.10
2023-08-17T20:42:30.086Z,25.10
2023-08-17T20:44:57.230Z,25.00
2023-08-17T20:47:24.600Z,25.00
2023-08-17T20:49:51.718Z,25.00
2023-08-17T20:52:19.196Z,25.00
2023-08-17T20:54:46.360Z,25.00
2023-08-17T20:57:14.579Z,25.00
2023-08-17T21:00:16.559Z,25.00
2023-08-17T21:02:43.691Z,25.00
2023-08-17T21:05:10.908Z,25.00
2023-08-17T21:07:38.432Z,25.10
2023-08-17T21:10:06.520Z,25.10
2023-08-17T21:12:33.684Z,25.00
2023-08-17T21:15:00.968Z,25.00
2023-08-17T21:17:28.462Z,25.00
2023-08-17T21:19:57.240Z,25.00
2023-08-17T21:22:24.454Z,25.00
2023-08-17T21:24:51.593Z,25.10
2023-08-17T21:27:18.722Z,25.10
2023-08-17T21:29:45.793Z,25.10
2023-08-17T21:32:13.180Z,25.10
2023-08-17T21:34:40.261Z,25.10
2023-08-17T21:37:10.940Z,25.00
2023-08-17T21:39:38.238Z,25.00
2023-08-17T21:42:05.868Z,25.00
2023-08-17T21:44:32.967Z,25.00
2023-08-17T21:47:00.085Z,24.90
2023-08-17T21:49:27.198Z,24.90
2023-08-17T21:51:54.244Z,24.90
2023-08-17T21:54:21.329Z,25.00
2023-08-17T21:56:48.431Z,25.00
2023-08-17T21:59:15.661Z,25.00
2023-08-17T22:01:42.782Z,25.00
2023-08-17T22:04:09.885Z,25.00
2023-08-17T22:06:38.548Z,24.90
2023-08-17T22:09:06.021Z,24.90
2023-08-17T22:11:33.114Z,24.90
2023-08-17T22:14:00.180Z,24.90
2023-08-17T22:16:27.342Z,24.90
2023-08-17T22:18:58.022Z,24.80
2023-08-17T22:21:25.208Z,24.80
2023-08-17T22:23:52.224Z,24.80
2023-08-17T22:26:19.289Z,24.80
2023-08-17T22:28:46.578Z,24.80
2023-08-17T22:31:14.072Z,24.80
2023-08-17T22:33:41.219Z,24.80
2023-08-17T22:36:08.432Z,24.80
2023-08-17T22:38:35.498Z,24.90
2023-08-17T22:41:02.552Z,24.90
2023-08-17T22:43:29.636Z,24.90
2023-08-17T22:45:56.708Z,24.90
2023-08-17T22:48:23.833Z,24.90
2023-08-17T22:50:50.937Z,24.90
2023-08-17T22:53:18.083Z,24.90
2023-08-17T22:55:45.174Z,25.00
2023-08-17T22:58:12.243Z,25.00
2023-08-17T23:00:40.269Z,24.90
2023-08-17T23:03:07.548Z,24.90
2023-08-17T23:05:34.861Z,24.90
2023-08-17T23:08:02.536Z,24.90
2023-08-17T23:10:29.688Z,24.90
2023-08-17T23:12:56.801Z,24.80
2023-08-17T23:15:24.167Z,24.80
2023-08-17T23:17:51.219Z,24.80
2023-08-17T23:20:18.390Z,24.80
2023-08-17T23:22:45.436Z,24.80
2023-08-17T23:25:12.560Z,24.80
2023-08-17T23:27:40.379Z,24.80
2023-08-17T23:30:08.307Z,24.80
2023-08-17T23:32:35.554Z,24.80
2023-08-17T23:35:02.789Z,24.70
2023-08-17T23:37:30.243Z,24.70
2023-08-17T23:39:57.602Z,24.70
2023-08-17T23:42:24.734Z,24.70
2023-08-17T23:44:51.770Z,24.60
2023-08-17T23:47:18.760Z,24.70
2023-08-17T23:49:46.006Z,24.60
2023-08-17T23:52:13.075Z,24.60
2023-08-17T23:54:40.212Z,24.60
2023-08-17T23:57:08.284Z,24.60
2023-08-17T23:59:35.533Z,24.60
